Terminal Aerodrome Forecast
Issued by NWS

Home | Current Version | Previous Version | Text Only | Print | Product List | Glossary Off
Versions: 1 2 3 4 5 6 7 8 9 10 11 12 13 14 15 16 17 18 19 20 21

000
FTUS42 KMHX 021059 AAD
TAFPGV
TAF AMD
KPGV 021059Z 0211/0306 00000KT 5SM BR SKC
     FM021300 VRB02KT P6SM SKC
     FM021700 14005KT P6SM FEW060
     FM030000 17005KT P6SM SKC
      AMD LTD TO CLD VIS AND WIND=

USA.gov is the U.S. government's official web portal to all federal, state and local government web resources and services.